Latest Weather Observations for Wangaratta

IDV60801

Issued at 1:02 am EST Tuesday 1 September 2015 (issued every 30 minutes, with the page automatically refreshed every 10 minutes)

About weather observations | Map of weather stations | Latest weather observations for VIC | Other Formats
Station Details ID: 082138 Name: WANGARATTA AERO Lat: -36.42 Lon: 146.31 Height: 152.6 m
Data from the previous 72 hours. | See also: Recent months at Wangaratta
Date/Time
EST
Temp
°C
App
Temp
°C
Dew
Point
Rel
Hum
%
Delta-T
°C
Wind Press
QNH
hPa
Press
MSL
hPa
Rain
since 9 am
mm
Dir
 
Spd
km/h
Gust
km/h
Spd
kts
Gust
kts
01/01:00am 0.8 -2.4 0.7 99 0.0 SSW 7 9 4 5 1017.6 1017.9 0.0
01/12:45am 1.4 -1.7 1.3 99 0.0 SW 7 9 4 5 1017.5 1017.8 0.0
01/12:39am 1.4 -1.7 1.3 99 0.0 WSW 7 9 4 5 1017.5 1017.8 0.0
01/12:37am 1.2 -1.9 1.1 99 0.0 W 7 9 4 5 1017.6 1017.9 0.0
01/12:30am 1.2 -2.4 0.9 98 0.1 W 9 11 5 6 1017.5 1017.8 0.0
01/12:00am 1.6 -1.5 1.5 99 0.0 SE 7 7 4 4 1017.5 1017.8 0.0
 
Date/Time
EST
Temp
°C
App
Temp
°C
Dew
Point
Rel
Hum
%
Delta-T
°C
Wind Press
QNH
hPa
Press
MSL
hPa
Rain
since 9 am
mm
Dir
 
Spd
km/h
Gust
km/h
Spd
kts
Gust
kts
31/11:59pm 1.7 -1.4 1.6 99 0.0 SE 7 7 4 4 1017.4 1017.7 0.0
31/11:49pm 2.6 0.6 2.5 99 0.0 SE 2 7 1 4 1017.4 1017.7 0.0
31/11:47pm 2.8 0.9 2.7 99 0.0 SE 2 7 1 4 1017.5 1017.8 0.0
31/11:30pm 2.6 0.6 2.3 98 0.1 SSE 2 7 1 4 1017.6 1017.9 0.0
31/11:11pm 2.8 0.1 2.5 98 0.1 SSE 6 7 3 4 1017.6 1017.9 0.0
31/11:00pm 2.6 -0.2 2.3 98 0.1 SSE 6 7 3 4 1017.6 1017.9 0.0
31/10:43pm 2.9 0.2 2.5 97 0.2 SSE 6 9 3 5 1017.6 1017.9 0.0
31/10:33pm 3.0 1.1 2.6 97 0.2 SE 2 6 1 3 1017.6 1017.9 0.0
31/10:30pm 2.9 0.9 2.5 97 0.2 SE 2 6 1 3 1017.5 1017.8 0.0
31/10:16pm 3.3 0.6 2.7 96 0.2 S 6 7 3 4 1017.6 1017.9 0.0
31/10:00pm 3.4 1.4 2.5 94 0.4 ESE 2 7 1 4 1017.7 1018.0 0.0
31/09:30pm 3.6 0.7 2.4 92 0.5 ESE 7 9 4 5 1017.5 1017.8 0.0
31/09:00pm 4.5 1.8 2.8 89 0.7 NE 6 7 3 4 1017.4 1017.7 0.0
31/08:30pm 6.7 5.4 4.0 83 1.2 CALM 0 6 0 3 1017.3 1017.6 0.0
31/08:00pm 7.1 4.7 4.2 82 1.3 N 6 7 3 4 1017.2 1017.5 0.0
31/07:30pm 7.0 4.6 4.1 82 1.3 NNE 6 7 3 4 1017.0 1017.3 0.0
31/07:00pm 8.5 5.9 4.1 74 1.9 NW 7 9 4 5 1016.8 1017.1 0.0
31/06:30pm 8.9 6.3 4.1 72 2.1 NW 7 13 4 7 1016.8 1017.1 0.0
31/06:00pm 9.9 7.2 3.6 65 2.8 NW 7 9 4 5 1016.8 1017.1 0.0
31/05:30pm 11.1 7.7 3.9 61 3.2 WNW 11 13 6 7 1016.7 1017.0 0.0
31/05:00pm 12.6 9.2 4.1 56 3.9 WNW 11 15 6 8 1016.5 1016.8 0.0
31/04:30pm 13.3 10.3 4.2 54 4.2 W 9 17 5 9 1016.5 1016.8 0.0
31/04:00pm 13.6 10.6 4.2 53 4.3 W 9 13 5 7 1016.4 1016.7 0.0
31/03:30pm 13.5 10.0 3.3 50 4.6 W 11 17 6 9 1016.5 1016.8 0.0
31/03:00pm 13.7 10.3 4.0 52 4.4 W 11 17 6 9 1016.7 1017.0 0.0
31/02:30pm 13.6 9.9 4.5 54 4.2 WNW 13 19 7 10 1016.9 1017.2 0.0
31/02:00pm 13.7 10.0 4.3 53 4.3 W 13 17 7 9 1017.1 1017.4 0.0
31/01:30pm 13.1 10.6 3.7 53 4.3 SSW 6 11 3 6 1017.4 1017.7 0.0
31/01:00pm 12.6 10.2 4.1 56 3.9 WSW 6 9 3 5 1017.7 1018.0 0.0
31/12:30pm 12.6 10.4 6.0 64 3.1 S 7 11 4 6 1018.2 1018.5 0.0
31/12:00pm 12.7 11.0 3.9 55 4.0 N 2 7 1 4 1018.7 1018.9 0.0
31/11:30am 11.7 9.1 3.0 55 3.8 NNE 6 9 3 5 1019.1 1019.3 0.0
31/11:00am 10.8 8.5 2.9 58 3.4 SSE 4 7 2 4 1019.3 1019.5 0.0
31/10:30am 10.4 8.3 3.7 63 3.0 ESE 4 7 2 4 1019.5 1019.7 0.0
31/10:00am 9.0 6.5 3.8 70 2.3 ESE 6 9 3 5 1019.7 1019.9 0.0
31/09:30am 7.8 5.4 4.2 78 1.6 ESE 6 9 3 5 1019.9 1020.1 0.0
31/09:00am 6.3 3.6 3.5 82 1.2 SE 7 9 4 5 1019.9 1020.1 0.0
31/08:30am 4.9 2.8 3.7 92 0.5 SSE 4 7 2 4 1020.0 1020.3 0.0
31/08:00am 3.1 1.2 3.0 99 0.0 SE 2 6 1 3 1019.9 1020.1 0.0
31/07:44am 1.9 -0.9 1.8 99 0.0 SSE 6 7 3 4 1019.8 1020.0 0.0
31/07:30am 1.4 -1.5 1.3 99 0.0 SSW 6 6 3 3 1019.7 1019.9 0.0
31/07:19am 0.7 -2.3 0.6 99 0.0 SSW 6 7 3 4 1019.6 1019.8 0.0
31/07:00am -0.4 -3.8 -0.5 99 0.0 SW 7 9 4 5 1019.6 1019.8 0.0
31/06:47am -0.3 -2.3 -0.4 99 0.0 CALM 0 0 0 0 1019.5 1019.7 0.0
31/06:30am -0.2 -3.6 -0.3 99 0.0 WSW 7 7 4 4 1019.5 1019.7 0.0
31/06:29am -0.2 -3.6 -0.3 99 0.0 WSW 7 7 4 4 1019.5 1019.7 0.0
31/06:00am -0.5 -3.9 -0.6 99 0.0 SW 7 9 4 5 1019.3 1019.5 0.0
31/05:30am -0.1 -3.3 -0.2 99 0.0 SW 6 7 3 4 1019.1 1019.3 0.0
31/05:01am 0.2 -2.5 0.1 99 0.0 SSW 4 6 2 3 1019.2 1019.4 0.0
31/05:00am 0.3 -2.4 0.2 99 0.0 SSW 4 6 2 3 1019.2 1019.4 0.0
31/04:47am 0.2 -2.9 0.1 99 0.0 SSE 6 6 3 3 1019.2 1019.4 0.0
31/04:30am 1.1 -1.5 1.0 99 0.0 ESE 4 7 2 4 1019.1 1019.3 0.0
31/04:19am 1.0 -0.8 0.9 99 0.0 CALM 0 0 0 0 1019.1 1019.3 0.0
31/04:04am 1.2 -0.6 1.1 99 0.0 CALM 0 2 0 1 1019.1 1019.3 0.0
31/04:00am 1.3 -0.5 1.2 99 0.0 CALM 0 2 0 1 1019.1 1019.3 0.0
31/03:39am 1.4 -0.4 1.3 99 0.0 CALM 0 0 0 0 1019.1 1019.3 0.0
31/03:30am 1.6 -0.2 1.5 99 0.0 CALM 0 0 0 0 1019.1 1019.3 0.0
31/03:20am 1.6 -0.2 1.5 99 0.0 CALM 0 0 0 0 1019.2 1019.4 0.0
31/03:00am 1.2 -1.4 0.9 98 0.1 SSW 4 6 2 3 1019.3 1019.5 0.0
31/02:30am 1.7 -1.4 1.4 98 0.1 SW 7 9 4 5 1019.3 1019.5 0.0
31/02:00am 2.2 0.5 1.8 97 0.2 CALM 0 0 0 0 1019.7 1019.9 0.0
31/01:30am 2.5 0.8 1.8 95 0.3 CALM 0 0 0 0 1019.9 1020.1 0.0
31/01:00am 3.5 1.9 2.5 93 0.4 CALM 0 0 0 0 1020.0 1020.3 0.0
31/12:30am 3.8 2.3 2.8 93 0.4 CALM 0 6 0 3 1020.1 1020.4 0.0
31/12:00am 4.8 2.3 3.8 93 0.4 SSE 6 7 3 4 1020.1 1020.4 0.0
 
Date/Time
EST
Temp
°C
App
Temp
°C
Dew
Point
Rel
Hum
%
Delta-T
°C
Wind Press
QNH
hPa
Press
MSL
hPa
Rain
since 9 am
mm
Dir
 
Spd
km/h
Gust
km/h
Spd
kts
Gust
kts
30/11:30pm 5.7 2.7 4.0 89 0.7 S 9 11 5 6 1020.3 1020.6 0.0
30/11:00pm 6.4 3.5 4.7 89 0.7 S 9 13 5 7 1020.5 1020.8 0.0
30/10:30pm 5.5 2.9 4.2 91 0.6 S 7 9 4 5 1020.7 1021.0 0.0
30/10:00pm 6.6 4.2 5.1 90 0.7 SSE 7 9 4 5 1020.8 1021.1 0.0
30/09:30pm 6.9 4.0 4.4 84 1.1 SSE 9 11 5 6 1020.7 1021.0 0.0
30/09:00pm 8.0 4.8 4.9 81 1.4 SW 11 15 6 8 1020.6 1020.9 0.0
30/08:30pm 8.6 5.0 5.2 79 1.5 WSW 13 17 7 9 1020.4 1020.7 0.0
30/08:00pm 8.9 5.8 5.5 79 1.5 WSW 11 15 6 8 1020.1 1020.4 0.0
30/07:30pm 8.9 6.2 5.6 80 1.5 WSW 9 13 5 7 1020.0 1020.3 0.0
30/07:00pm 8.8 5.2 5.2 78 1.6 WNW 13 13 7 7 1019.9 1020.1 0.0
30/06:30pm 10.3 7.2 5.7 73 2.1 W 11 13 6 7 1019.7 1019.9 0.0
30/06:00pm 11.9 8.1 6.0 67 2.8 W 15 17 8 9 1019.5 1019.7 0.0
30/05:30pm 12.5 9.1 6.1 65 3.0 WSW 13 17 7 9 1019.5 1019.7 0.0
30/05:00pm 13.9 10.5 6.0 59 3.8 SW 13 17 7 9 1019.4 1019.6 0.0
30/04:30pm 15.1 11.9 5.0 51 4.8 SW 11 13 6 7 1019.4 1019.6 0.0
30/04:00pm 15.3 12.9 5.2 51 4.8 SW 7 11 4 6 1019.5 1019.7 0.0
30/03:30pm 15.4 12.8 4.2 47 5.2 WSW 7 11 4 6 1019.7 1019.9 0.0
30/03:00pm 15.3 12.6 3.5 45 5.4 WNW 7 13 4 7 1019.9 1020.1 0.0
30/02:30pm 15.5 13.6 4.8 49 5.1 SW 4 17 2 9 1020.1 1020.4 0.0
30/02:00pm 14.7 12.1 4.4 50 4.8 WSW 7 11 4 6 1020.3 1020.6 0.0
30/01:30pm 14.4 11.1 4.4 51 4.7 SW 11 17 6 9 1020.7 1021.0 0.0
30/01:00pm 14.0 11.1 4.6 53 4.4 WSW 9 13 5 7 1021.1 1021.4 0.0
30/12:30pm 14.2 11.3 4.5 52 4.5 S 9 13 5 7 1021.5 1021.8 0.0
30/12:00pm 13.4 10.2 3.2 50 4.6 SSW 9 19 5 10 1022.0 1022.3 0.0
30/11:30am 12.8 8.6 4.0 55 4.0 SW 15 20 8 11 1022.4 1022.7 0.0
30/11:00am 12.4 9.5 4.6 59 3.6 SSW 9 17 5 9 1022.7 1023.0 0.0
30/10:30am 11.5 9.2 5.8 68 2.7 SE 7 11 4 6 1022.7 1023.0 0.0
30/10:00am 10.5 7.8 5.7 72 2.2 SSE 9 13 5 7 1022.8 1023.1 0.0
30/09:30am 8.7 6.2 4.9 77 1.7 SE 7 9 4 5 1023.1 1023.4 0.0
30/09:00am 8.1 5.6 4.9 80 1.4 E 7 9 4 5 1023.3 1023.6 0.0
30/08:30am 6.7 4.4 4.9 88 0.8 SE 6 7 3 4 1023.2 1023.5 0.0
30/08:00am 4.5 2.1 4.4 99 0.0 S 6 7 3 4 1023.1 1023.4 0.0
30/07:30am 3.0 1.5 2.9 99 0.0 CALM 0 0 0 0 1022.9 1023.2 0.0
30/07:00am 1.2 -1.4 1.1 99 0.0 SW 4 7 2 4 1022.6 1022.9 0.0
30/06:30am 0.9 -1.3 0.8 99 0.0 WSW 2 7 1 4 1022.5 1022.8 0.0
30/06:00am 1.4 -1.7 1.3 99 0.0 SE 7 7 4 4 1022.2 1022.5 0.0
30/05:49am 1.2 -1.8 1.1 99 0.0 E 6 7 3 4 1022.3 1022.6 0.0
30/05:30am 1.3 -1.8 1.2 99 0.0 ESE 7 9 4 5 1022.2 1022.5 0.0
30/05:00am 1.3 -1.7 1.0 98 0.1 ESE 6 6 3 3 1022.1 1022.4 0.0
30/04:51am 1.6 -1.5 1.3 98 0.1 E 7 9 4 5 1022.2 1022.5 0.0
30/04:30am 1.9 -0.2 1.6 98 0.1 ESE 2 7 1 4 1022.2 1022.5 0.0
30/04:00am 2.2 -0.6 1.8 97 0.2 ESE 6 9 3 5 1022.0 1022.3 0.0
30/03:30am 2.9 -0.4 2.5 97 0.2 SSE 9 11 5 6 1022.0 1022.3 0.0
30/03:00am 3.3 0.4 2.6 95 0.3 SE 7 7 4 4 1022.1 1022.4 0.0
30/02:30am 4.5 1.8 3.5 93 0.4 S 7 9 4 5 1022.4 1022.7 0.0
30/02:00am 4.9 1.4 3.7 92 0.5 SSW 11 15 6 8 1022.5 1022.8 0.0
30/01:30am 5.7 2.0 4.3 91 0.6 SSW 13 17 7 9 1022.7 1023.0 0.0
30/01:00am 6.4 2.3 4.6 88 0.8 SSW 15 19 8 10 1022.8 1023.1 0.0
30/12:30am 7.1 2.7 4.8 85 1.0 SW 17 22 9 12 1023.0 1023.3 0.0
30/12:00am 7.1 2.7 4.6 84 1.1 SW 17 22 9 12 1022.9 1023.2 0.0
 
Date/Time
EST
Temp
°C
App
Temp
°C
Dew
Point
Rel
Hum
%
Delta-T
°C
Wind Press
QNH
hPa
Press
MSL
hPa
Rain
since 9 am
mm
Dir
 
Spd
km/h
Gust
km/h
Spd
kts
Gust
kts
29/11:30pm 7.6 2.6 4.7 82 1.3 SW 20 28 11 15 1022.9 1023.2 0.0
29/11:00pm 7.3 3.3 4.8 84 1.1 SW 15 20 8 11 1023.1 1023.4 0.0
29/10:30pm 7.4 2.7 5.0 85 1.1 WSW 19 26 10 14 1023.3 1023.6 0.0
29/10:00pm 7.2 3.6 5.0 86 1.0 WSW 13 19 7 10 1023.3 1023.6 0.0
29/09:30pm 7.7 3.4 5.3 85 1.1 WSW 17 20 9 11 1023.4 1023.7 0.0
29/09:00pm 7.1 3.5 4.8 85 1.0 SW 13 17 7 9 1023.4 1023.7 0.0
29/08:30pm 7.3 3.3 4.8 84 1.1 SW 15 19 8 10 1023.5 1023.8 0.0
29/08:00pm 8.0 3.0 4.8 80 1.4 SW 20 28 11 15 1023.4 1023.7 0.0
29/07:30pm 8.4 3.6 4.6 77 1.7 SW 19 24 10 13 1023.4 1023.7 0.0
29/07:00pm 8.9 3.5 4.5 74 2.0 SW 22 32 12 17 1023.2 1023.5 0.0
29/06:30pm 9.1 4.2 4.3 72 2.1 SW 19 24 10 13 1023.0 1023.3 0.0
29/06:00pm 9.5 4.4 4.3 70 2.3 WSW 20 26 11 14 1022.7 1023.0 0.0
29/05:30pm 10.3 4.5 4.2 66 2.7 SW 24 33 13 18 1022.6 1022.9 0.0
29/05:00pm 11.4 5.2 4.2 61 3.2 SW 26 37 14 20 1022.4 1022.7 0.0
29/04:30pm 12.1 7.3 4.8 61 3.4 SW 19 24 10 13 1022.2 1022.5 0.0
29/04:00pm 12.4 7.5 4.9 60 3.5 SW 20 28 11 15 1022.2 1022.5 0.0
29/03:30pm 12.3 7.1 3.3 54 4.0 SW 20 28 11 15 1022.3 1022.6 0.0
29/03:00pm 12.6 6.6 3.5 54 4.1 SW 24 33 13 18 1022.5 1022.8 0.0
29/02:30pm 12.5 7.0 4.0 56 3.9 SW 22 32 12 17 1022.5 1022.8 0.0
29/02:00pm 12.2 6.4 2.4 51 4.3 SW 22 30 12 16 1022.7 1023.0 0.0
29/01:30pm 12.1 5.7 3.1 54 4.0 SW 26 37 14 20 1023.0 1023.3 0.0
29/01:00pm 11.9 5.9 3.2 55 3.8 SW 24 39 13 21 1023.3 1023.6 0.0
29/12:30pm 11.5 5.8 2.8 55 3.8 WSW 22 32 12 17 1023.9 1024.2 0.0
29/12:00pm 11.1 5.7 2.7 56 3.6 SW 20 32 11 17 1024.3 1024.6 0.0
29/11:30am 10.9 4.7 2.0 54 3.8 SW 24 35 13 19 1024.5 1024.8 0.0
29/11:00am 10.4 4.9 1.8 55 3.6 SW 20 28 11 15 1024.7 1025.0 0.0
29/10:30am 9.7 4.1 1.1 55 3.6 SW 20 32 11 17 1024.9 1025.2 0.0
29/10:00am 9.1 3.2 1.8 60 3.0 SSW 22 30 12 16 1024.9 1025.2 0.0
29/09:30am 8.2 3.4 2.4 67 2.4 WSW 17 22 9 12 1024.9 1025.2 0.0
29/09:00am 7.4 1.6 2.3 70 2.1 SW 22 28 12 15 1024.7 1025.0 0.0
29/08:30am 6.5 2.8 2.2 74 1.8 SSW 11 15 6 8 1024.7 1025.0 0.0
29/08:00am 5.4 0.8 1.7 77 1.5 SSW 15 17 8 9 1024.6 1024.9 0.0
29/07:30am 3.6 0.4 0.8 82 1.1 SSW 7 9 4 5 1024.3 1024.6 0.0
29/07:00am 2.4 -0.7 0.3 86 0.8 SW 6 9 3 5 1023.9 1024.2 0.0
29/06:30am 2.4 -1.3 -0.2 83 1.0 SW 9 13 5 7 1023.6 1023.9 0.0
29/06:00am 3.2 -1.2 0.4 82 1.1 SSW 13 17 7 9 1023.5 1023.8 0.0
29/05:30am 3.5 -1.3 0.2 79 1.3 SW 15 19 8 10 1023.4 1023.7 0.0
29/05:00am 3.6 -0.8 0.3 79 1.2 SW 13 19 7 10 1023.3 1023.6 0.0
29/04:30am 3.4 -0.9 0.8 83 1.0 WSW 13 19 7 10 1023.3 1023.6 0.0
29/04:00am 3.6 -0.3 1.0 83 1.0 SW 11 13 6 7 1023.1 1023.4 0.0
29/03:30am 4.1 -0.1 1.8 85 0.9 WSW 13 17 7 9 1023.1 1023.4 0.0
29/03:00am 4.4 0.3 2.3 86 0.8 SW 13 15 7 8 1023.4 1023.7 0.0
29/02:30am 5.5 0.4 3.0 84 1.0 SW 19 24 10 13 1023.5 1023.8 0.0
29/02:00am 6.0 1.3 3.3 83 1.1 SW 17 22 9 12 1023.6 1023.9 0.0
29/01:30am 6.0 1.7 3.5 84 1.1 SW 15 19 8 10 1023.8 1024.1 0.0

Other Formats:

Comma delimited format used in spreadsheet applications
http://www.bom.gov.au/fwo/IDV60801/IDV60801.94889.axf

JavaScript Object Notation format (JSON) in row-major order
http://www.bom.gov.au/fwo/IDV60801/IDV60801.94889.json